Time;durP1;ratioP1;P1;durP2;ratioP2;P2;SDS_P1;SDS_P2;PMS_P1;PMS_P2;Temp;Humidity;BMP_temperature;BMP_pressure;BME280_temperature;BME280_humidity;BME280_pressure;Samples;Min_cycle;Max_cycle;Signal;HPM_P1;HPM_P2
2022/03/21 00:02:09;;;;;;;;;;;;;;;25.37;35.51;95346.34;4970340;28;7140;-63
2022/03/21 00:04:35;;;;;;;;;;;;;;;25.35;35.61;95346.09;4955458;28;7102;-63
2022/03/21 00:07:06;;;;;;;;;;;;;;;25.33;35.32;95346.56;4950247;28;7240;-63
2022/03/21 00:09:45;;;;;;;;;;;;;;;25.34;35.57;95353.59;4960411;28;7296;-63
2022/03/21 00:12:22;;;;;;;;;;;;;;;25.35;35.65;95355.09;4974946;28;7068;-63
2022/03/21 00:14:49;;;;;;;;;;;;;;;25.32;35.66;95355.31;4952798;28;9110;-63
2022/03/21 00:17:22;;;;;;;;;;;;;;;25.34;35.59;95361.84;4944386;28;9137;-63
2022/03/21 00:19:50;;;;;;;;;;;;;;;25.36;35.60;95364.09;4939001;28;8702;-63
2022/03/21 00:22:20;;;;;;;;;;;;;;;25.36;35.52;95361.34;4949301;28;7150;-63
2022/03/21 00:24:49;;;;;;;;;;;;;;;25.35;35.24;95359.84;4957693;28;9751;-63
2022/03/21 00:27:16;;;;;;;;;;;;;;;25.34;34.88;95364.59;4973022;28;9324;-63
2022/03/21 00:29:55;;;;;;;;;;;;;;;25.34;35.53;95361.09;4955157;28;9432;-63
2022/03/21 00:32:22;;;;;;;;;;;;;;;25.33;35.61;95357.59;4957385;28;9153;-63
2022/03/21 00:34:48;;;;;;;;;;;;;;;25.32;35.06;95358.81;4963371;28;7234;-63
2022/03/21 00:37:18;;;;;;;;;;;;;;;25.28;35.72;95350.03;4968541;28;9095;-63
2022/03/21 00:40:02;;;;;;;;;;;;;;;25.31;35.51;95359.31;4957126;28;8720;-63
2022/03/21 00:42:34;;;;;;;;;;;;;;;25.31;35.41;95364.81;4954539;28;7333;-63
2022/03/21 00:45:09;;;;;;;;;;;;;;;25.30;35.22;95375.06;4960245;28;7305;-63
2022/03/21 00:47:35;;;;;;;;;;;;;;;25.31;34.87;95367.56;4954781;28;7345;-63
2022/03/21 00:50:03;;;;;;;;;;;;;;;25.28;35.15;95374.81;4957339;28;7522;-63
2022/03/21 00:52:57;;;;;;;;;;;;;;;25.29;34.80;95370.78;4963946;28;7095;-63
2022/03/21 00:55:33;;;;;;;;;;;;;;;25.29;35.83;95379.06;4925300;29;7247;-63
2022/03/21 00:58:02;;;;;;;;;;;;;;;25.28;35.05;95376.78;4927189;29;9078;-62
2022/03/21 01:00:38;;;;;;;;;;;;;;;25.27;35.53;95375.31;4928790;29;8829;-63
2022/03/21 01:03:15;;;;;;;;;;;;;;;25.25;35.45;95375.75;4915420;29;7358;-63
2022/03/21 01:05:42;;;;;;;;;;;;;;;25.25;35.32;95366.78;4916181;29;7874;-63
2022/03/21 01:08:08;;;;;;;;;;;;;;;25.27;35.40;95375.31;4913892;29;7652;-63
2022/03/21 01:10:39;;;;;;;;;;;;;;;25.24;35.56;95366.00;4926201;29;9402;-63
2022/03/21 01:13:18;;;;;;;;;;;;;;;25.26;35.23;95379.28;4916592;29;7049;-63
2022/03/21 01:15:46;;;;;;;;;;;;;;;25.25;34.89;95370.25;4916981;29;7354;-62
2022/03/21 01:18:14;;;;;;;;;;;;;;;25.24;35.13;95366.00;4916231;29;9126;-63
2022/03/21 01:20:40;;;;;;;;;;;;;;;25.25;35.46;95373.00;4932913;29;7514;-63
2022/03/21 01:23:06;;;;;;;;;;;;;;;25.23;35.26;95374.72;4930304;29;7279;-63
2022/03/21 01:26:03;;;;;;;;;;;;;;;25.22;34.71;95382.25;4929237;29;7011;-63
2022/03/21 01:28:38;;;;;;;;;;;;;;;25.18;35.03;95378.19;4872838;29;7067;-63
2022/03/21 01:31:06;;;;;;;;;;;;;;;25.19;35.26;95376.94;4862319;29;7019;-63
2022/03/21 01:33:35;;;;;;;;;;;;;;;25.19;34.70;95379.69;4894586;29;8565;-63
2022/03/21 01:36:01;;;;;;;;;;;;;;;25.18;34.95;95384.47;4891910;29;9469;-63
2022/03/21 01:38:38;;;;;;;;;;;;;;;25.17;34.94;95382.94;4889368;29;9548;-63
2022/03/21 01:41:06;;;;;;;;;;;;;;;25.17;35.29;95379.44;4900501;29;7213;-63
2022/03/21 01:43:32;;;;;;;;;;;;;;;25.18;35.07;95376.22;4884618;29;7300;-63
2022/03/21 01:45:58;;;;;;;;;;;;;;;25.18;34.54;95378.19;4903593;29;9363;-63
2022/03/21 01:48:28;;;;;;;;;;;;;;;25.16;35.22;95380.69;4895558;29;9141;-63
2022/03/21 01:50:54;;;;;;;;;;;;;;;25.16;34.92;95380.69;4885315;29;9875;-63
2022/03/21 01:56:15;;;;;;;;;;;;;;;25.15;35.00;95370.91;4917112;29;9150;-63
2022/03/21 01:58:50;;;;;;;;;;;;;;;25.15;34.56;95371.66;4898818;29;7694;-63
2022/03/21 02:01:22;;;;;;;;;;;;;;;25.16;35.11;95369.66;4900821;29;9471;-63
2022/03/21 02:03:48;;;;;;;;;;;;;;;25.12;35.17;95369.13;4906057;28;7640;-63
2022/03/21 02:06:14;;;;;;;;;;;;;;;25.16;34.78;95375.19;4978390;28;7058;-63
2022/03/21 02:08:40;;;;;;;;;;;;;;;25.15;35.22;95370.91;4959240;28;7058;-63
2022/03/21 02:11:06;;;;;;;;;;;;;;;25.15;35.12;95368.16;4951309;28;8871;-63
2022/03/21 02:13:34;;;;;;;;;;;;;;;25.15;35.15;95370.91;4959510;28;9286;-63
2022/03/21 02:16:01;;;;;;;;;;;;;;;25.14;35.07;95367.38;4958864;28;7058;-63
2022/03/21 02:18:33;;;;;;;;;;;;;;;25.13;35.28;95370.63;4962988;28;9535;-63
2022/03/21 02:21:02;;;;;;;;;;;;;;;25.12;34.50;95371.88;4951636;28;8744;-63
2022/03/21 02:24:05;;;;;;;;;;;;;;;25.11;35.09;95365.63;4949259;28;8687;-63
2022/03/21 02:26:35;;;;;;;;;;;;;;;25.13;34.97;95365.13;4916512;29;9071;-63
2022/03/21 02:29:02;;;;;;;;;;;;;;;25.12;34.41;95360.88;4902016;29;9453;-63
2022/03/21 02:31:32;;;;;;;;;;;;;;;25.09;34.90;95362.59;4911790;29;8935;-63
2022/03/21 02:34:00;;;;;;;;;;;;;;;25.09;34.96;95364.59;4890741;29;7274;-63
2022/03/21 02:36:32;;;;;;;;;;;;;;;25.10;35.01;95360.59;4891678;29;9053;-63
2022/03/21 02:38:59;;;;;;;;;;;;;;;25.09;34.56;95353.56;4913870;29;9090;-63
2022/03/21 02:41:25;;;;;;;;;;;;;;;25.07;35.28;95361.56;4899634;29;7058;-63
2022/03/21 02:43:57;;;;;;;;;;;;;;;25.07;34.45;95362.31;4914176;29;7320;-63
2022/03/21 02:46:24;;;;;;;;;;;;;;;25.06;34.64;95357.28;4903596;29;7008;-63
2022/03/21 02:48:54;;;;;;;;;;;;;;;25.07;34.91;95367.06;4918264;29;9488;-63
2022/03/21 02:51:21;;;;;;;;;;;;;;;25.05;34.76;95373.06;4911045;29;7000;-63
2022/03/21 02:53:51;;;;;;;;;;;;;;;25.03;34.98;95367.28;4913082;29;9105;-63
2022/03/21 02:56:20;;;;;;;;;;;;;;;25.05;34.76;95375.06;4904316;29;7067;-63
2022/03/21 02:59:18;;;;;;;;;;;;;;;25.05;34.64;95375.06;4912889;29;7377;-63
2022/03/21 03:01:46;;;;;;;;;;;;;;;25.03;34.38;95372.78;4842311;29;9389;-63
2022/03/21 03:04:22;;;;;;;;;;;;;;;25.04;35.01;95368.03;4884485;29;7069;-63
2022/03/21 03:06:48;;;;;;;;;;;;;;;25.03;34.35;95374.78;4899897;29;8823;-63
2022/03/21 03:09:16;;;;;;;;;;;;;;;25.03;34.90;95370.03;4892583;29;7376;-63
2022/03/21 03:11:43;;;;;;;;;;;;;;;25.02;34.82;95371.28;4879780;29;7121;-63
2022/03/21 03:14:09;;;;;;;;;;;;;;;25.01;34.99;95369.00;4889273;29;7122;-63
2022/03/21 03:16:36;;;;;;;;;;;;;;;25.02;34.82;95374.03;4887829;29;7358;-63
2022/03/21 03:19:02;;;;;;;;;;;;;;;25.03;34.89;95369.28;4891522;29;6986;-63
2022/03/21 03:21:40;;;;;;;;;;;;;;;25.02;34.38;95371.28;4894710;29;8648;-63
2022/03/21 03:24:09;;;;;;;;;;;;;;;25.03;34.86;95378.31;4893598;29;7275;-63
2022/03/21 03:26:35;;;;;;;;;;;;;;;25.03;34.49;95372.03;4893770;29;9124;-63
2022/03/21 03:29:01;;;;;;;;;;;;;;;25.01;34.29;95374.50;4891527;29;9121;-63
2022/03/21 03:31:28;;;;;;;;;;;;;;;25.00;34.35;95378.50;4894196;29;9285;-63
2022/03/21 03:33:55;;;;;;;;;;;;;;;25.01;34.51;95386.25;4884499;29;9018;-63
2022/03/21 03:36:23;;;;;;;;;;;;;;;24.99;34.32;95379.75;4877091;29;9224;-63
2022/03/21 03:38:51;;;;;;;;;;;;;;;25.00;34.19;95386.75;4933434;28;7445;-62
2022/03/21 03:41:19;;;;;;;;;;;;;;;25.01;34.48;95391.03;4989130;28;7183;-63
2022/03/21 03:43:48;;;;;;;;;;;;;;;25.02;34.73;95398.03;4975279;28;7996;-63
2022/03/21 03:46:16;;;;;;;;;;;;;;;25.01;34.56;95394.50;4965099;28;7587;-63
2022/03/21 03:48:43;;;;;;;;;;;;;;;25.00;34.29;95400.50;4958298;28;7038;-63
2022/03/21 03:51:10;;;;;;;;;;;;;;;25.00;34.25;95401.28;4966941;28;7277;-63
2022/03/21 03:53:48;;;;;;;;;;;;;;;25.00;34.42;95406.78;4975933;28;7297;-63
2022/03/21 03:56:16;;;;;;;;;;;;;;;24.98;34.14;95406.50;4958261;28;7168;-63
2022/03/21 03:58:43;;;;;;;;;;;;;;;25.00;34.92;95404.03;4957312;28;7844;-63
2022/03/21 04:01:09;;;;;;;;;;;;;;;24.98;34.59;95403.75;4955035;28;7075;-63
2022/03/21 04:03:54;;;;;;;;;;;;;;;25.00;34.55;95411.50;4970651;28;8078;-63
2022/03/21 04:06:25;;;;;;;;;;;;;;;24.98;34.69;95405.75;4955233;28;9166;-63
2022/03/21 04:08:52;;;;;;;;;;;;;;;24.92;34.20;95400.19;4957026;28;9351;-63
2022/03/21 04:11:27;;;;;;;;;;;;;;;24.98;34.21;95403.75;4958027;28;9099;-63
2022/03/21 04:14:04;;;;;;;;;;;;;;;24.96;33.76;95408.22;4974229;28;9366;-63
2022/03/21 04:16:30;;;;;;;;;;;;;;;24.96;34.27;95397.22;4971009;28;7243;-63
2022/03/21 04:19:02;;;;;;;;;;;;;;;24.96;34.07;95402.72;4973488;28;9253;-63
2022/03/21 04:21:28;;;;;;;;;;;;;;;24.96;34.18;95405.47;4967494;28;7273;-63
2022/03/21 04:23:56;;;;;;;;;;;;;;;24.95;34.24;95401.19;4968831;28;9231;-63
2022/03/21 04:26:22;;;;;;;;;;;;;;;24.93;34.23;95400.91;4958800;28;9454;-63
2022/03/21 04:28:50;;;;;;;;;;;;;;;24.93;34.53;95401.69;4957583;28;9038;-63
2022/03/21 04:31:16;;;;;;;;;;;;;;;24.92;34.51;95396.66;4967170;28;8650;-63
2022/03/21 04:33:42;;;;;;;;;;;;;;;24.91;34.33;95403.41;4963241;28;8002;-63
2022/03/21 04:36:11;;;;;;;;;;;;;;;24.91;34.25;95409.66;4953048;28;7242;-63
2022/03/21 04:38:39;;;;;;;;;;;;;;;24.86;33.99;95398.59;4970085;28;7116;-63
2022/03/21 04:41:10;;;;;;;;;;;;;;;24.86;34.36;95393.09;4956047;28;7053;-63
2022/03/21 04:43:36;;;;;;;;;;;;;;;24.86;34.15;95401.34;4976420;28;7050;-63
2022/03/21 04:46:01;;;;;;;;;;;;;;;24.86;34.24;95398.59;4985972;28;7307;-63
2022/03/21 04:48:27;;;;;;;;;;;;;;;24.85;33.94;95394.31;4962005;28;7038;-63
2022/03/21 04:50:55;;;;;;;;;;;;;;;24.83;34.50;95399.56;4968279;28;9276;-63
2022/03/21 04:53:23;;;;;;;;;;;;;;;24.81;34.35;95397.28;4956733;28;7730;-63
2022/03/21 04:55:49;;;;;;;;;;;;;;;24.81;34.46;95394.53;4968420;28;7048;-63
2022/03/21 04:58:16;;;;;;;;;;;;;;;24.82;34.47;95400.78;4958653;28;9331;-63
2022/03/21 05:00:54;;;;;;;;;;;;;;;24.79;34.15;95402.53;4962007;28;8652;-63
2022/03/21 05:03:32;;;;;;;;;;;;;;;24.80;34.07;95406.00;4963976;28;7164;-63
2022/03/21 05:05:59;;;;;;;;;;;;;;;24.80;34.45;95408.75;4963319;28;7238;-63
2022/03/21 05:08:27;;;;;;;;;;;;;;;24.80;34.34;95417.78;4972690;28;7219;-63
2022/03/21 05:11:04;;;;;;;;;;;;;;;24.79;34.35;95416.28;4954279;28;7043;-62
2022/03/21 05:13:37;;;;;;;;;;;;;;;24.78;33.71;95416.75;4938235;28;7200;-63
2022/03/21 05:16:07;;;;;;;;;;;;;;;24.77;34.67;95418.75;4948622;28;7067;-63
2022/03/21 05:19:04;;;;;;;;;;;;;;;24.77;33.98;95424.25;4955030;28;8684;-63
2022/03/21 05:21:35;;;;;;;;;;;;;;;24.76;34.41;95425.47;4901647;29;7294;-64
2022/03/21 05:32:28;;;;;;;;;;;;;;;24.77;34.52;95427.00;4902285;29;7512;-62
2022/03/21 05:37:39;;;;;;;;;;;;;;;24.77;34.14;95431.75;4887260;29;9176;-62
2022/03/21 05:42:50;;;;;;;;;;;;;;;24.73;33.94;95437.41;4898938;29;7270;-62
2022/03/21 05:45:19;;;;;;;;;;;;;;;24.75;34.39;95439.72;4887825;29;7257;-62
2022/03/21 05:50:38;;;;;;;;;;;;;;;24.74;34.40;95441.69;4898789;29;7252;-63
2022/03/21 05:53:08;;;;;;;;;;;;;;;24.77;34.22;95448.25;4900000;29;9023;-62
2022/03/21 05:55:35;;;;;;;;;;;;;;;24.76;34.10;95447.50;4893557;29;7889;-62
2022/03/21 05:58:01;;;;;;;;;;;;;;;24.76;33.98;95446.72;4922974;28;9114;-63
2022/03/21 06:00:27;;;;;;;;;;;;;;;24.71;34.18;95446.16;4968636;28;8389;-62
2022/03/21 06:02:58;;;;;;;;;;;;;;;24.75;34.01;95447.97;4968924;28;7337;-62
2022/03/21 06:05:25;;;;;;;;;;;;;;;24.75;33.76;95453.47;4960481;28;8301;-63
2022/03/21 06:07:51;;;;;;;;;;;;;;;24.71;33.51;95450.88;4952379;28;7313;-63
2022/03/21 06:10:18;;;;;;;;;;;;;;;24.77;33.63;95451.78;4952449;28;8725;-63
2022/03/21 06:12:46;;;;;;;;;;;;;;;24.72;32.89;95455.16;4964901;28;9128;-63
2022/03/21 06:15:13;;;;;;;;;;;;;;;24.72;32.82;95449.66;4962487;28;7272;-63
2022/03/21 06:17:44;;;;;;;;;;;;;;;24.71;32.73;95457.16;4966175;28;9191;-62
2022/03/21 06:20:14;;;;;;;;;;;;;;;24.69;32.95;95456.88;4951233;28;9012;-62
2022/03/21 06:22:41;;;;;;;;;;;;;;;24.72;32.60;95466.16;4963428;28;9092;-62
2022/03/21 06:25:11;;;;;;;;;;;;;;;24.70;32.38;95466.66;4934368;28;9060;-63
2022/03/21 06:27:38;;;;;;;;;;;;;;;24.73;32.55;95472.44;4952480;28;8441;-63
2022/03/21 06:30:07;;;;;;;;;;;;;;;24.73;32.92;95469.69;4968354;28;9072;-63
2022/03/21 06:32:34;;;;;;;;;;;;;;;24.73;32.51;95469.69;4965893;28;7357;-63
2022/03/21 06:35:03;;;;;;;;;;;;;;;24.67;32.76;95473.09;4945055;28;7071;-62
2022/03/21 06:37:31;;;;;;;;;;;;;;;24.73;33.03;95480.69;4960560;28;8011;-63
2022/03/21 06:39:57;;;;;;;;;;;;;;;24.71;32.89;95478.41;4957233;28;8804;-62
2022/03/21 06:42:24;;;;;;;;;;;;;;;24.71;32.49;95484.66;4970482;28;7084;-62
2022/03/21 06:44:52;;;;;;;;;;;;;;;24.69;33.04;95489.88;4955795;28;7268;-62
2022/03/21 06:47:20;;;;;;;;;;;;;;;24.73;32.91;95486.19;4972697;28;7397;-62
2022/03/21 06:49:48;;;;;;;;;;;;;;;24.70;32.73;95485.91;4955231;28;7066;-63
2022/03/21 06:52:19;;;;;;;;;;;;;;;24.72;32.99;95488.19;4966024;28;7241;-62
2022/03/21 06:54:46;;;;;;;;;;;;;;;24.73;32.36;95497.94;4956321;28;7228;-62
2022/03/21 06:57:13;;;;;;;;;;;;;;;24.72;32.52;95490.94;4955382;28;9098;-62
2022/03/21 06:59:40;;;;;;;;;;;;;;;24.71;32.44;95492.91;4971626;28;7419;-63
2022/03/21 07:02:07;;;;;;;;;;;;;;;24.72;32.78;95499.19;4963786;28;9253;-62
2022/03/21 07:04:41;;;;;;;;;;;;;;;24.71;32.75;95500.41;4963120;28;7245;-63
2022/03/21 07:07:07;;;;;;;;;;;;;;;24.69;32.95;95503.66;4970825;28;9065;-63
2022/03/21 07:09:33;;;;;;;;;;;;;;;24.70;32.77;95507.16;4944664;28;7356;-63
2022/03/21 07:12:00;;;;;;;;;;;;;;;24.69;32.65;95503.66;4961480;28;9537;-63
2022/03/21 07:14:26;;;;;;;;;;;;;;;24.71;32.67;95508.66;4954964;28;7372;-62
2022/03/21 07:16:53;;;;;;;;;;;;;;;24.68;32.41;95507.63;4955333;28;9232;-63
2022/03/21 07:19:19;;;;;;;;;;;;;;;24.70;32.25;95516.19;4957889;28;8925;-63
2022/03/21 07:21:49;;;;;;;;;;;;;;;24.68;32.69;95506.88;4961289;28;7231;-63
2022/03/21 07:24:17;;;;;;;;;;;;;;;24.68;32.62;95512.38;4952300;28;8744;-63
2022/03/21 07:26:43;;;;;;;;;;;;;;;24.67;32.69;95519.09;4958217;28;7265;-62
2022/03/21 07:29:12;;;;;;;;;;;;;;;24.67;32.88;95517.13;4949362;28;7785;-62
2022/03/21 07:31:39;;;;;;;;;;;;;;;24.65;32.98;95519.59;4953766;28;9692;-62
2022/03/21 07:34:07;;;;;;;;;;;;;;;24.70;32.73;95516.19;4954500;28;8062;-61
2022/03/21 07:36:34;;;;;;;;;;;;;;;24.69;33.08;95520.16;4972234;28;8789;-61
2022/03/21 07:39:04;;;;;;;;;;;;;;;24.67;33.66;95516.34;4964227;28;6881;-62
2022/03/21 07:41:30;;;;;;;;;;;;;;;24.67;33.31;95519.88;4954689;28;7708;-61
2022/03/21 07:43:58;;;;;;;;;;;;;;;24.66;34.17;95523.84;4954529;28;7488;-61
2022/03/21 07:49:11;;;;;;;;;;;;;;;24.67;34.06;95525.38;4973535;28;7291;-62
2022/03/21 07:51:37;;;;;;;;;;;;;;;24.70;33.77;95527.19;4955306;28;7339;-62
2022/03/21 07:54:10;;;;;;;;;;;;;;;24.73;33.94;95526.22;4948027;28;8770;-62
2022/03/21 07:56:50;;;;;;;;;;;;;;;24.70;33.86;95521.69;4950848;28;8838;-62
2022/03/21 07:59:17;;;;;;;;;;;;;;;24.72;33.39;95526.69;4967177;28;9042;-62
2022/03/21 08:01:45;;;;;;;;;;;;;;;24.69;33.36;95524.88;4963537;28;8783;-62
2022/03/21 08:04:20;;;;;;;;;;;;;;;24.69;32.36;95528.41;4946521;28;7678;-62
2022/03/21 08:06:57;;;;;;;;;;;;;;;24.68;32.26;95528.88;4946513;28;7250;-61
2022/03/21 08:09:24;;;;;;;;;;;;;;;24.66;32.42;95532.09;4957181;28;7350;-62
2022/03/21 08:11:52;;;;;;;;;;;;;;;24.65;31.88;95525.09;4969963;28;7391;-62
2022/03/21 08:14:25;;;;;;;;;;;;;;;24.66;32.26;95525.88;4946282;28;7179;-62
2022/03/21 08:16:51;;;;;;;;;;;;;;;24.65;31.92;95525.09;4962203;28;9846;-62
2022/03/21 08:19:18;;;;;;;;;;;;;;;24.66;32.34;95526.59;4954446;28;9328;-61
2022/03/21 08:21:49;;;;;;;;;;;;;;;24.63;32.14;95519.31;4955266;28;7128;-61
2022/03/21 08:24:16;;;;;;;;;;;;;;;24.68;32.67;95521.38;4954790;28;7276;-61
2022/03/21 08:26:45;;;;;;;;;;;;;;;24.67;32.66;95519.88;4957887;28;9389;-61
2022/03/21 08:29:11;;;;;;;;;;;;;;;24.68;32.19;95518.63;4947722;28;6981;-62
2022/03/21 08:31:39;;;;;;;;;;;;;;;24.66;31.94;95521.09;4955970;28;9815;-61
2022/03/21 08:34:07;;;;;;;;;;;;;;;24.68;32.44;95526.13;4967442;28;7221;-62
2022/03/21 08:36:36;;;;;;;;;;;;;;;24.70;32.25;95513.44;4956638;28;9183;-62
2022/03/21 08:39:05;;;;;;;;;;;;;;;24.67;32.29;95522.63;4966603;28;8969;-62
2022/03/21 08:41:43;;;;;;;;;;;;;;;24.70;32.23;95521.69;4949128;28;8870;-62
2022/03/21 08:44:12;;;;;;;;;;;;;;;24.70;32.11;95518.94;4968812;28;9291;-62
2022/03/21 08:46:38;;;;;;;;;;;;;;;24.69;32.54;95531.16;4969743;28;8867;-62
2022/03/21 08:51:48;;;;;;;;;;;;;;;24.69;32.35;95522.13;4973433;28;7138;-62
2022/03/21 08:54:19;;;;;;;;;;;;;;;24.72;32.50;95515.69;4970114;28;7008;-62
2022/03/21 08:56:45;;;;;;;;;;;;;;;24.73;32.70;95508.19;4945406;28;7423;-61
2022/03/21 08:59:11;;;;;;;;;;;;;;;24.72;32.39;95518.44;4956236;28;7417;-62
2022/03/21 09:01:37;;;;;;;;;;;;;;;24.73;32.14;95519.22;4969878;28;7171;-62
2022/03/21 09:04:03;;;;;;;;;;;;;;;24.73;32.15;95519.22;4964289;28;9127;-62
2022/03/21 09:06:31;;;;;;;;;;;;;;;24.70;32.38;95510.69;4969887;28;9282;-62
2022/03/21 09:08:58;;;;;;;;;;;;;;;24.71;32.48;95506.66;4969787;28;9448;-62
2022/03/21 09:11:25;;;;;;;;;;;;;;;24.73;32.42;95508.94;4969053;28;9149;-62
2022/03/21 09:14:03;;;;;;;;;;;;;;;24.73;32.25;95506.94;4972202;28;9425;-62
2022/03/21 09:16:30;;;;;;;;;;;;;;;24.72;32.34;95507.44;4954606;28;9179;-62
2022/03/21 09:19:05;;;;;;;;;;;;;;;24.73;32.67;95504.19;4969419;28;9022;-62
2022/03/21 09:21:40;;;;;;;;;;;;;;;24.71;32.64;95501.16;4971552;28;7474;-62
2022/03/21 09:24:06;;;;;;;;;;;;;;;24.71;32.51;95501.16;4969364;28;7345;-62
2022/03/21 09:26:35;;;;;;;;;;;;;;;24.70;32.28;95504.41;4954088;28;9050;-62
2022/03/21 09:29:03;;;;;;;;;;;;;;;24.69;32.19;95498.13;4944172;28;9041;-62
2022/03/21 09:31:30;;;;;;;;;;;;;;;24.66;32.54;95501.84;4955101;28;9028;-62
2022/03/21 09:33:56;;;;;;;;;;;;;;;24.68;32.40;95499.38;4956949;28;9077;-62
2022/03/21 09:36:32;;;;;;;;;;;;;;;24.67;32.51;95494.34;4955854;28;7186;-62
2022/03/21 09:38:58;;;;;;;;;;;;;;;24.68;32.32;95501.38;4952714;28;8732;-62
2022/03/21 09:41:29;;;;;;;;;;;;;;;24.68;33.06;95502.13;4955528;28;7223;-62
2022/03/21 09:43:58;;;;;;;;;;;;;;;24.68;32.68;95495.88;4953270;28;7243;-62
2022/03/21 09:46:24;;;;;;;;;;;;;;;24.67;32.88;95499.84;4952025;28;9565;-62
2022/03/21 09:48:53;;;;;;;;;;;;;;;24.67;32.48;95497.88;4943211;28;9014;-62
2022/03/21 09:51:24;;;;;;;;;;;;;;;24.69;32.45;95489.13;4955586;28;7297;-62
2022/03/21 09:54:00;;;;;;;;;;;;;;;24.67;32.70;95489.63;4966961;28;9131;-62
2022/03/21 09:56:32;;;;;;;;;;;;;;;24.70;32.72;95482.41;4955943;28;9501;-62
2022/03/21 09:58:59;;;;;;;;;;;;;;;24.67;32.64;95486.84;4956135;28;9411;-62
2022/03/21 10:01:26;;;;;;;;;;;;;;;24.69;32.67;95481.63;4959923;28;9442;-62
2022/03/21 10:03:54;;;;;;;;;;;;;;;24.71;32.73;95484.66;4954505;28;7513;-61
2022/03/21 10:06:32;;;;;;;;;;;;;;;24.71;32.68;95473.66;4959469;28;7458;-62
2022/03/21 10:09:13;;;;;;;;;;;;;;;24.73;32.79;95472.44;4959414;28;7233;-62
2022/03/21 10:12:02;;;;;;;;;;;;;;;24.71;32.59;95468.16;4943794;28;9096;-62
2022/03/21 10:14:37;;;;;;;;;;;;;;;24.70;32.83;95469.41;4951280;28;7241;-62
2022/03/21 10:17:25;;;;;;;;;;;;;;;24.73;32.49;95465.69;4969726;28;7044;-62
2022/03/21 10:19:53;;;;;;;;;;;;;;;24.70;32.20;95472.16;4956873;28;9092;-62
2022/03/21 10:22:21;;;;;;;;;;;;;;;24.69;31.93;95465.13;4957290;28;7978;-63
2022/03/21 10:25:05;;;;;;;;;;;;;;;24.75;32.31;95467.97;4965842;28;7165;-62
2022/03/21 10:27:47;;;;;;;;;;;;;;;24.76;32.14;95466.00;4971168;28;7244;-62
2022/03/21 10:30:47;;;;;;;;;;;;;;;24.79;32.40;95454.03;4959322;28;9072;-61
2022/03/21 10:33:23;;;;;;;;;;;;;;;24.81;32.30;95459.81;4972537;28;7402;-62
2022/03/21 10:35:49;;;;;;;;;;;;;;;24.81;32.21;95460.56;4953822;28;7621;-61
2022/03/21 10:39:05;;;;;;;;;;;;;;;24.83;32.74;95454.59;4958538;28;9173;-62
2022/03/21 10:41:36;;;;;;;;;;;;;;;24.84;32.66;95459.59;4937845;28;8821;-62
2022/03/21 10:44:04;;;;;;;;;;;;;;;24.85;32.85;95455.63;4926626;28;7300;-61
2022/03/21 10:46:30;;;;;;;;;;;;;;;24.87;32.73;95457.88;4960586;28;8908;-61
2022/03/21 10:49:12;;;;;;;;;;;;;;;24.88;32.68;95456.66;4940951;28;7066;-61
2022/03/21 10:51:49;;;;;;;;;;;;;;;24.90;32.86;95448.69;4946948;28;8448;-62
2022/03/21 10:54:35;;;;;;;;;;;;;;;24.91;33.10;95450.19;4950538;28;9699;-62
2022/03/21 10:57:03;;;;;;;;;;;;;;;24.91;32.90;95447.44;4940250;28;7436;-62
2022/03/21 10:59:32;;;;;;;;;;;;;;;24.92;32.80;95452.47;4952304;28;9064;-62
2022/03/21 11:02:15;;;;;;;;;;;;;;;24.90;32.61;95443.94;4961565;28;7069;-62
2022/03/21 11:04:54;;;;;;;;;;;;;;;24.93;32.45;95445.72;4957617;28;7196;-62
2022/03/21 11:07:23;;;;;;;;;;;;;;;24.92;32.81;95438.72;4938944;28;9067;-63
2022/03/21 11:09:49;;;;;;;;;;;;;;;24.91;32.61;95447.44;4935232;28;9492;-62
2022/03/21 11:12:16;;;;;;;;;;;;;;;24.92;32.57;95435.97;4938943;28;9230;-62
2022/03/21 11:14:53;;;;;;;;;;;;;;;24.95;32.68;95436.97;4949780;28;7976;-62
2022/03/21 11:17:21;;;;;;;;;;;;;;;24.95;32.50;95426.72;4966023;28;7234;-62
2022/03/21 11:19:49;;;;;;;;;;;;;;;24.97;32.36;95431.75;4943369;28;9106;-62
2022/03/21 11:22:29;;;;;;;;;;;;;;;24.98;31.97;95428.53;4963637;28;7397;-62
2022/03/21 11:25:35;;;;;;;;;;;;;;;25.00;32.13;95425.28;4967897;28;9031;-62
2022/03/21 11:28:14;;;;;;;;;;;;;;;24.99;32.04;95423.78;4895794;29;7605;-62
2022/03/21 11:31:04;;;;;;;;;;;;;;;24.98;32.06;95422.25;4898342;29;9792;-62
2022/03/21 11:33:41;;;;;;;;;;;;;;;24.97;32.18;95418.00;4906174;29;9093;-62
2022/03/21 11:36:11;;;;;;;;;;;;;;;24.96;31.68;95406.22;4894834;29;9191;-63
2022/03/21 11:38:56;;;;;;;;;;;;;;;25.00;31.59;95415.03;4915458;29;9593;-63
2022/03/21 11:41:26;;;;;;;;;;;;;;;25.00;30.90;95408.75;4894588;29;7354;-63
2022/03/21 11:44:04;;;;;;;;;;;;;;;24.97;31.04;95401.50;4908421;29;7216;-62
2022/03/21 11:46:32;;;;;;;;;;;;;;;24.98;30.80;95403.00;4884760;29;7336;-63
2022/03/21 11:48:59;;;;;;;;;;;;;;;24.98;30.92;95406.50;4887398;29;7443;-62
2022/03/21 11:51:40;;;;;;;;;;;;;;;24.98;30.73;95400.22;4901185;29;6986;-62
2022/03/21 11:54:27;;;;;;;;;;;;;;;24.98;30.54;95391.97;4895850;29;7337;-63
2022/03/21 11:57:02;;;;;;;;;;;;;;;24.96;30.37;95389.72;4906970;29;6994;-63
2022/03/21 11:59:35;;;;;;;;;;;;;;;24.97;30.37;95393.22;4915050;29;7571;-63
2022/03/21 12:02:22;;;;;;;;;;;;;;;24.92;30.42;95393.91;4930208;28;7366;-62
2022/03/21 12:05:05;;;;;;;;;;;;;;;24.88;30.50;95383.09;4914672;29;9328;-61
2022/03/21 12:07:33;;;;;;;;;;;;;;;24.94;30.54;95385.94;4897923;29;10007;-62
2022/03/21 12:10:38;;;;;;;;;;;;;;;24.95;30.37;95393.69;4898250;29;9113;-62
2022/03/21 12:13:04;;;;;;;;;;;;;;;24.97;30.28;95387.72;4893871;29;7305;-62
2022/03/21 12:15:33;;;;;;;;;;;;;;;24.98;30.12;95386.47;4901507;29;9084;-62
2022/03/21 12:18:08;;;;;;;;;;;;;;;24.99;29.97;95382.50;4905657;29;9176;-62
2022/03/21 12:20:52;;;;;;;;;;;;;;;25.01;29.65;95378.00;4906772;29;8990;-62
2022/03/21 12:23:35;;;;;;;;;;;;;;;25.02;29.82;95376.78;4899731;29;9370;-63
2022/03/21 12:26:02;;;;;;;;;;;;;;;25.02;29.36;95367.75;4927110;29;7323;-62
2022/03/21 12:31:31;;;;;;;;;;;;;;;25.01;28.96;95361.47;4912420;29;7339;-62
2022/03/21 12:34:45;;;;;;;;;;;;;;;24.99;28.89;95354.97;4912412;29;9727;-62
2022/03/21 12:37:42;;;;;;;;;;;;;;;25.00;29.10;95360.00;4911152;29;7722;-62
2022/03/21 12:40:21;;;;;;;;;;;;;;;25.05;28.94;95355.78;4913307;29;9219;-62
2022/03/21 12:43:06;;;;;;;;;;;;;;;25.06;28.35;95351.78;4945305;28;7045;-62
2022/03/21 12:45:44;;;;;;;;;;;;;;;25.09;28.22;95350.81;4972412;28;7055;-62
2022/03/21 12:48:13;;;;;;;;;;;;;;;25.11;28.48;95337.31;4974280;28;9377;-62
2022/03/21 12:50:40;;;;;;;;;;;;;;;25.10;28.29;95341.34;4965661;28;7511;-62
2022/03/21 12:53:10;;;;;;;;;;;;;;;25.11;28.69;95335.34;4952652;28;7164;-62
2022/03/21 12:55:36;;;;;;;;;;;;;;;25.12;28.51;95331.31;4954796;28;9560;-61
2022/03/21 12:58:13;;;;;;;;;;;;;;;25.17;28.92;95335.38;4953040;28;8734;-62
2022/03/21 13:00:43;;;;;;;;;;;;;;;25.18;29.04;95334.16;4954355;28;9131;-61
2022/03/21 13:03:35;;;;;;;;;;;;;;;25.20;29.00;95329.69;4958494;28;7034;-62
2022/03/21 13:12:04;;;;;;;;;;;;;;;25.17;29.63;95319.63;4930074;28;7220;-62
2022/03/21 13:14:41;;;;;;;;;;;;;;;25.17;29.41;95314.13;4932099;28;7058;-62
2022/03/21 13:17:17;;;;;;;;;;;;;;;25.24;29.45;95321.94;4942166;28;7427;-62
2022/03/21 13:19:44;;;;;;;;;;;;;;;25.24;29.27;95316.44;4929351;28;8762;-62
2022/03/21 13:22:10;;;;;;;;;;;;;;;25.27;29.71;95309.22;4936263;28;7308;-62
2022/03/21 13:24:42;;;;;;;;;;;;;;;25.28;29.79;95313.47;4937771;28;9253;-61
2022/03/21 13:27:12;;;;;;;;;;;;;;;25.27;30.27;95306.47;4925689;29;9061;-62
2022/03/21 13:29:47;;;;;;;;;;;;;;;25.27;29.13;95298.94;4912663;29;7054;-61
2022/03/21 13:32:13;;;;;;;;;;;;;;;25.29;29.91;95301.97;4930364;28;7153;-62
2022/03/21 13:34:55;;;;;;;;;;;;;;;25.29;30.18;95296.44;4927554;28;7049;-61
2022/03/21 13:37:27;;;;;;;;;;;;;;;25.33;29.85;95302.50;4931996;29;7346;-61
2022/03/21 13:40:07;;;;;;;;;;;;;;;25.36;30.11;95290.50;4916856;29;9120;-61
2022/03/21 13:42:37;;;;;;;;;;;;;;;25.38;30.37;95292.78;4940921;28;8790;-61
2022/03/21 13:45:06;;;;;;;;;;;;;;;25.41;30.03;95294.56;4953308;28;7049;-62
2022/03/21 13:47:50;;;;;;;;;;;;;;;25.42;30.23;95294.09;4966035;28;7296;-62
2022/03/21 13:50:17;;;;;;;;;;;;;;;25.43;30.11;95286.59;4966617;28;9376;-62
2022/03/21 13:52:53;;;;;;;;;;;;;;;25.45;29.57;95286.84;4958487;28;9105;-62
2022/03/21 13:55:42;;;;;;;;;;;;;;;25.47;30.07;95283.63;4950550;28;8982;-61